sensor_id;sensor_type;location;lat;lon;timestamp;P1;durP1;ratioP1;P2;durP2;ratioP2
78484;SDS011;67773;50.806;8.776;2023-05-07T00:01:47;5.67;;;3.10;;
78484;SDS011;67773;50.806;8.776;2023-05-07T00:04:12;5.63;;;3.00;;
78484;SDS011;67773;50.806;8.776;2023-05-07T00:06:38;5.50;;;3.83;;
78484;SDS011;67773;50.806;8.776;2023-05-07T00:09:04;5.43;;;3.72;;
78484;SDS011;67773;50.806;8.776;2023-05-07T00:11:30;5.68;;;3.38;;
78484;SDS011;67773;50.806;8.776;2023-05-07T00:13:56;5.20;;;3.50;;
78484;SDS011;67773;50.806;8.776;2023-05-07T00:16:21;4.90;;;3.47;;
78484;SDS011;67773;50.806;8.776;2023-05-07T00:18:46;5.65;;;3.13;;
78484;SDS011;67773;50.806;8.776;2023-05-07T00:21:12;7.00;;;4.00;;
78484;SDS011;67773;50.806;8.776;2023-05-07T00:23:37;5.20;;;3.43;;
78484;SDS011;67773;50.806;8.776;2023-05-07T00:26:03;4.73;;;3.43;;
78484;SDS011;67773;50.806;8.776;2023-05-07T00:28:28;5.68;;;3.53;;
78484;SDS011;67773;50.806;8.776;2023-05-07T00:30:54;5.68;;;3.55;;
78484;SDS011;67773;50.806;8.776;2023-05-07T00:33:19;5.57;;;3.67;;
78484;SDS011;67773;50.806;8.776;2023-05-07T00:35:46;6.07;;;3.33;;
78484;SDS011;67773;50.806;8.776;2023-05-07T00:38:12;4.35;;;3.42;;
78484;SDS011;67773;50.806;8.776;2023-05-07T00:40:37;4.90;;;3.13;;
78484;SDS011;67773;50.806;8.776;2023-05-07T00:43:02;4.82;;;3.22;;
78484;SDS011;67773;50.806;8.776;2023-05-07T00:45:28;4.78;;;3.13;;
78484;SDS011;67773;50.806;8.776;2023-05-07T00:47:54;4.65;;;3.42;;
78484;SDS011;67773;50.806;8.776;2023-05-07T00:50:22;6.30;;;3.85;;
78484;SDS011;67773;50.806;8.776;2023-05-07T00:52:47;6.57;;;3.83;;
78484;SDS011;67773;50.806;8.776;2023-05-07T00:55:13;5.68;;;3.67;;
78484;SDS011;67773;50.806;8.776;2023-05-07T00:57:39;6.03;;;3.42;;
78484;SDS011;67773;50.806;8.776;2023-05-07T01:00:07;4.78;;;3.45;;
78484;SDS011;67773;50.806;8.776;2023-05-07T01:02:34;6.75;;;3.47;;
78484;SDS011;67773;50.806;8.776;2023-05-07T01:05:00;3.67;;;3.25;;
78484;SDS011;67773;50.806;8.776;2023-05-07T01:07:28;5.72;;;3.40;;
78484;SDS011;67773;50.806;8.776;2023-05-07T01:09:54;4.70;;;3.65;;
78484;SDS011;67773;50.806;8.776;2023-05-07T01:12:20;6.53;;;3.70;;
78484;SDS011;67773;50.806;8.776;2023-05-07T01:14:46;5.45;;;3.63;;
78484;SDS011;67773;50.806;8.776;2023-05-07T01:17:11;6.30;;;3.60;;
78484;SDS011;67773;50.806;8.776;2023-05-07T01:19:36;4.90;;;3.20;;
78484;SDS011;67773;50.806;8.776;2023-05-07T01:22:03;4.20;;;3.33;;
78484;SDS011;67773;50.806;8.776;2023-05-07T01:24:33;7.75;;;3.90;;
78484;SDS011;67773;50.806;8.776;2023-05-07T01:26:59;6.05;;;3.58;;
78484;SDS011;67773;50.806;8.776;2023-05-07T01:29:26;4.70;;;3.53;;
78484;SDS011;67773;50.806;8.776;2023-05-07T01:31:51;10.70;;;3.80;;
78484;SDS011;67773;50.806;8.776;2023-05-07T01:34:17;7.50;;;3.38;;
78484;SDS011;67773;50.806;8.776;2023-05-07T01:36:46;4.82;;;3.58;;
78484;SDS011;67773;50.806;8.776;2023-05-07T01:39:12;4.93;;;3.30;;
78484;SDS011;67773;50.806;8.776;2023-05-07T01:41:38;5.30;;;3.53;;
78484;SDS011;67773;50.806;8.776;2023-05-07T01:44:04;6.25;;;3.55;;
78484;SDS011;67773;50.806;8.776;2023-05-07T01:46:31;7.78;;;4.07;;
78484;SDS011;67773;50.806;8.776;2023-05-07T01:48:57;5.13;;;3.45;;
78484;SDS011;67773;50.806;8.776;2023-05-07T01:51:23;4.65;;;3.45;;
78484;SDS011;67773;50.806;8.776;2023-05-07T01:53:51;4.10;;;3.17;;
78484;SDS011;67773;50.806;8.776;2023-05-07T01:56:18;5.90;;;3.67;;
78484;SDS011;67773;50.806;8.776;2023-05-07T01:58:46;5.00;;;3.67;;
78484;SDS011;67773;50.806;8.776;2023-05-07T02:01:13;5.30;;;3.75;;
78484;SDS011;67773;50.806;8.776;2023-05-07T02:03:39;5.63;;;3.67;;
78484;SDS011;67773;50.806;8.776;2023-05-07T02:06:05;5.10;;;3.50;;
78484;SDS011;67773;50.806;8.776;2023-05-07T02:08:30;5.68;;;3.92;;
78484;SDS011;67773;50.806;8.776;2023-05-07T02:10:56;4.57;;;3.47;;
78484;SDS011;67773;50.806;8.776;2023-05-07T02:13:21;5.05;;;3.67;;
78484;SDS011;67773;50.806;8.776;2023-05-07T02:15:47;5.50;;;3.88;;
78484;SDS011;67773;50.806;8.776;2023-05-07T02:18:15;6.47;;;4.32;;
78484;SDS011;67773;50.806;8.776;2023-05-07T02:20:41;6.72;;;4.72;;
78484;SDS011;67773;50.806;8.776;2023-05-07T02:23:07;6.78;;;4.03;;
78484;SDS011;67773;50.806;8.776;2023-05-07T02:25:32;5.03;;;3.72;;
78484;SDS011;67773;50.806;8.776;2023-05-07T02:27:58;5.88;;;3.92;;
78484;SDS011;67773;50.806;8.776;2023-05-07T02:30:24;6.25;;;3.90;;
78484;SDS011;67773;50.806;8.776;2023-05-07T02:32:50;5.45;;;3.55;;
78484;SDS011;67773;50.806;8.776;2023-05-07T02:35:16;6.55;;;4.38;;
78484;SDS011;67773;50.806;8.776;2023-05-07T02:37:41;6.28;;;3.92;;
78484;SDS011;67773;50.806;8.776;2023-05-07T02:40:07;6.57;;;4.57;;
78484;SDS011;67773;50.806;8.776;2023-05-07T02:42:32;6.47;;;4.32;;
78484;SDS011;67773;50.806;8.776;2023-05-07T02:44:58;6.70;;;4.53;;
78484;SDS011;67773;50.806;8.776;2023-05-07T02:47:24;6.47;;;4.68;;
78484;SDS011;67773;50.806;8.776;2023-05-07T02:49:51;7.65;;;5.32;;
78484;SDS011;67773;50.806;8.776;2023-05-07T02:52:17;11.07;;;5.60;;
78484;SDS011;67773;50.806;8.776;2023-05-07T02:54:42;8.53;;;5.60;;
78484;SDS011;67773;50.806;8.776;2023-05-07T02:57:08;7.00;;;4.83;;
78484;SDS011;67773;50.806;8.776;2023-05-07T02:59:34;8.40;;;5.40;;
78484;SDS011;67773;50.806;8.776;2023-05-07T03:02:00;7.00;;;5.03;;
78484;SDS011;67773;50.806;8.776;2023-05-07T03:04:25;6.97;;;4.93;;
78484;SDS011;67773;50.806;8.776;2023-05-07T03:06:51;10.37;;;5.53;;
78484;SDS011;67773;50.806;8.776;2023-05-07T03:09:16;7.50;;;4.80;;
78484;SDS011;67773;50.806;8.776;2023-05-07T03:11:42;9.57;;;5.80;;
78484;SDS011;67773;50.806;8.776;2023-05-07T03:14:08;8.43;;;5.80;;
78484;SDS011;67773;50.806;8.776;2023-05-07T03:16:33;8.15;;;5.75;;
78484;SDS011;67773;50.806;8.776;2023-05-07T03:18:59;11.38;;;6.25;;
78484;SDS011;67773;50.806;8.776;2023-05-07T03:21:25;7.30;;;5.37;;
78484;SDS011;67773;50.806;8.776;2023-05-07T03:23:51;7.95;;;5.20;;
78484;SDS011;67773;50.806;8.776;2023-05-07T03:26:16;6.93;;;4.82;;
78484;SDS011;67773;50.806;8.776;2023-05-07T03:28:42;7.85;;;4.70;;
78484;SDS011;67773;50.806;8.776;2023-05-07T03:31:07;8.73;;;5.37;;
78484;SDS011;67773;50.806;8.776;2023-05-07T03:33:32;7.65;;;5.25;;
78484;SDS011;67773;50.806;8.776;2023-05-07T03:35:58;7.80;;;5.18;;
78484;SDS011;67773;50.806;8.776;2023-05-07T03:38:25;9.00;;;5.55;;
78484;SDS011;67773;50.806;8.776;2023-05-07T03:40:51;7.57;;;5.20;;
78484;SDS011;67773;50.806;8.776;2023-05-07T03:43:16;7.60;;;5.30;;
78484;SDS011;67773;50.806;8.776;2023-05-07T03:45:41;8.40;;;5.63;;
78484;SDS011;67773;50.806;8.776;2023-05-07T03:48:07;8.47;;;5.77;;
78484;SDS011;67773;50.806;8.776;2023-05-07T03:50:32;8.82;;;4.82;;
78484;SDS011;67773;50.806;8.776;2023-05-07T03:52:58;9.52;;;5.80;;
78484;SDS011;67773;50.806;8.776;2023-05-07T03:55:23;8.25;;;5.80;;
78484;SDS011;67773;50.806;8.776;2023-05-07T03:57:49;8.10;;;6.20;;
78484;SDS011;67773;50.806;8.776;2023-05-07T04:00:14;8.93;;;6.20;;
78484;SDS011;67773;50.806;8.776;2023-05-07T04:02:40;8.20;;;6.25;;
78484;SDS011;67773;50.806;8.776;2023-05-07T04:05:05;10.27;;;6.70;;
78484;SDS011;67773;50.806;8.776;2023-05-07T04:07:31;10.77;;;7.22;;
78484;SDS011;67773;50.806;8.776;2023-05-07T04:09:56;10.98;;;6.30;;
78484;SDS011;67773;50.806;8.776;2023-05-07T04:12:22;12.88;;;6.65;;
78484;SDS011;67773;50.806;8.776;2023-05-07T04:14:47;10.83;;;6.70;;
78484;SDS011;67773;50.806;8.776;2023-05-07T04:17:12;8.77;;;6.23;;
78484;SDS011;67773;50.806;8.776;2023-05-07T04:19:38;14.68;;;7.20;;
78484;SDS011;67773;50.806;8.776;2023-05-07T04:22:03;9.63;;;7.05;;
78484;SDS011;67773;50.806;8.776;2023-05-07T04:24:32;10.70;;;7.22;;
78484;SDS011;67773;50.806;8.776;2023-05-07T04:26:58;11.73;;;8.00;;
78484;SDS011;67773;50.806;8.776;2023-05-07T04:29:23;10.88;;;8.07;;
78484;SDS011;67773;50.806;8.776;2023-05-07T04:31:49;12.88;;;8.30;;
78484;SDS011;67773;50.806;8.776;2023-05-07T04:34:14;13.52;;;9.40;;
78484;SDS011;67773;50.806;8.776;2023-05-07T04:36:40;15.13;;;9.33;;
78484;SDS011;67773;50.806;8.776;2023-05-07T04:39:05;14.50;;;9.07;;
78484;SDS011;67773;50.806;8.776;2023-05-07T04:41:31;11.93;;;8.65;;
78484;SDS011;67773;50.806;8.776;2023-05-07T04:43:57;15.35;;;10.05;;
78484;SDS011;67773;50.806;8.776;2023-05-07T04:46:24;15.25;;;9.57;;
78484;SDS011;67773;50.806;8.776;2023-05-07T04:48:49;16.42;;;8.45;;
78484;SDS011;67773;50.806;8.776;2023-05-07T04:51:15;13.55;;;9.73;;
78484;SDS011;67773;50.806;8.776;2023-05-07T04:53:41;13.65;;;9.30;;
78484;SDS011;67773;50.806;8.776;2023-05-07T04:56:06;15.13;;;9.73;;
78484;SDS011;67773;50.806;8.776;2023-05-07T04:58:31;15.67;;;10.43;;
78484;SDS011;67773;50.806;8.776;2023-05-07T05:00:57;18.50;;;10.93;;
78484;SDS011;67773;50.806;8.776;2023-05-07T05:03:23;17.00;;;11.52;;
78484;SDS011;67773;50.806;8.776;2023-05-07T05:05:49;15.83;;;10.53;;
78484;SDS011;67773;50.806;8.776;2023-05-07T05:08:14;17.25;;;10.77;;
78484;SDS011;67773;50.806;8.776;2023-05-07T05:10:40;17.13;;;11.23;;
78484;SDS011;67773;50.806;8.776;2023-05-07T05:13:06;15.75;;;10.85;;
78484;SDS011;67773;50.806;8.776;2023-05-07T05:15:32;15.00;;;10.77;;
78484;SDS011;67773;50.806;8.776;2023-05-07T05:17:58;19.05;;;11.75;;
78484;SDS011;67773;50.806;8.776;2023-05-07T05:20:23;14.63;;;10.30;;
78484;SDS011;67773;50.806;8.776;2023-05-07T05:22:49;17.85;;;11.38;;
78484;SDS011;67773;50.806;8.776;2023-05-07T05:25:16;20.27;;;11.30;;
78484;SDS011;67773;50.806;8.776;2023-05-07T05:27:41;18.45;;;12.00;;
78484;SDS011;67773;50.806;8.776;2023-05-07T05:30:08;16.30;;;12.17;;
78484;SDS011;67773;50.806;8.776;2023-05-07T05:32:33;19.35;;;12.88;;
78484;SDS011;67773;50.806;8.776;2023-05-07T05:34:59;19.03;;;12.50;;
78484;SDS011;67773;50.806;8.776;2023-05-07T05:37:25;20.27;;;11.45;;
78484;SDS011;67773;50.806;8.776;2023-05-07T05:39:50;16.95;;;11.27;;
78484;SDS011;67773;50.806;8.776;2023-05-07T05:42:15;19.10;;;11.87;;
78484;SDS011;67773;50.806;8.776;2023-05-07T05:44:41;17.58;;;11.55;;
78484;SDS011;67773;50.806;8.776;2023-05-07T05:47:06;19.90;;;12.50;;
78484;SDS011;67773;50.806;8.776;2023-05-07T05:49:32;18.63;;;12.73;;
78484;SDS011;67773;50.806;8.776;2023-05-07T05:51:57;18.52;;;12.30;;
78484;SDS011;67773;50.806;8.776;2023-05-07T05:54:23;18.38;;;11.88;;
78484;SDS011;67773;50.806;8.776;2023-05-07T05:56:48;20.38;;;12.07;;
78484;SDS011;67773;50.806;8.776;2023-05-07T05:59:14;19.38;;;12.65;;
78484;SDS011;67773;50.806;8.776;2023-05-07T06:01:39;18.42;;;12.55;;
78484;SDS011;67773;50.806;8.776;2023-05-07T06:04:05;18.00;;;11.68;;
78484;SDS011;67773;50.806;8.776;2023-05-07T06:06:30;20.63;;;13.48;;
78484;SDS011;67773;50.806;8.776;2023-05-07T06:08:56;22.00;;;14.07;;
78484;SDS011;67773;50.806;8.776;2023-05-07T06:11:22;18.80;;;12.82;;
78484;SDS011;67773;50.806;8.776;2023-05-07T06:13:47;20.98;;;13.13;;
78484;SDS011;67773;50.806;8.776;2023-05-07T06:16:13;22.17;;;13.17;;
78484;SDS011;67773;50.806;8.776;2023-05-07T06:18:40;20.80;;;12.27;;
78484;SDS011;67773;50.806;8.776;2023-05-07T06:21:05;20.58;;;13.73;;
78484;SDS011;67773;50.806;8.776;2023-05-07T06:23:31;20.67;;;12.57;;
78484;SDS011;67773;50.806;8.776;2023-05-07T06:25:56;20.63;;;12.68;;
78484;SDS011;67773;50.806;8.776;2023-05-07T06:28:21;20.67;;;12.87;;
78484;SDS011;67773;50.806;8.776;2023-05-07T06:30:47;22.85;;;14.50;;
78484;SDS011;67773;50.806;8.776;2023-05-07T06:33:14;20.88;;;13.45;;
78484;SDS011;67773;50.806;8.776;2023-05-07T06:35:40;22.17;;;12.85;;
78484;SDS011;67773;50.806;8.776;2023-05-07T06:38:05;20.47;;;12.90;;
78484;SDS011;67773;50.806;8.776;2023-05-07T06:40:30;22.17;;;13.18;;
78484;SDS011;67773;50.806;8.776;2023-05-07T06:42:56;22.75;;;13.00;;
78484;SDS011;67773;50.806;8.776;2023-05-07T06:45:21;18.80;;;12.48;;
78484;SDS011;67773;50.806;8.776;2023-05-07T06:47:47;21.33;;;12.93;;
78484;SDS011;67773;50.806;8.776;2023-05-07T06:50:12;19.83;;;13.63;;
78484;SDS011;67773;50.806;8.776;2023-05-07T06:52:38;21.42;;;12.80;;
78484;SDS011;67773;50.806;8.776;2023-05-07T06:55:03;24.15;;;12.65;;
78484;SDS011;67773;50.806;8.776;2023-05-07T06:57:29;20.70;;;13.55;;
78484;SDS011;67773;50.806;8.776;2023-05-07T06:59:54;21.53;;;13.40;;
78484;SDS011;67773;50.806;8.776;2023-05-07T07:02:20;21.02;;;13.02;;
78484;SDS011;67773;50.806;8.776;2023-05-07T07:04:45;21.75;;;13.27;;
78484;SDS011;67773;50.806;8.776;2023-05-07T07:07:10;21.83;;;13.13;;
78484;SDS011;67773;50.806;8.776;2023-05-07T07:09:36;18.43;;;11.93;;
78484;SDS011;67773;50.806;8.776;2023-05-07T07:12:01;20.70;;;12.77;;
78484;SDS011;67773;50.806;8.776;2023-05-07T07:14:27;22.70;;;13.20;;
78484;SDS011;67773;50.806;8.776;2023-05-07T07:16:52;20.03;;;12.73;;
78484;SDS011;67773;50.806;8.776;2023-05-07T07:19:17;18.52;;;12.23;;
78484;SDS011;67773;50.806;8.776;2023-05-07T07:21:45;16.10;;;10.38;;
78484;SDS011;67773;50.806;8.776;2023-05-07T07:24:10;18.17;;;12.27;;
78484;SDS011;67773;50.806;8.776;2023-05-07T07:26:35;18.67;;;12.73;;
78484;SDS011;67773;50.806;8.776;2023-05-07T07:29:01;18.35;;;11.82;;
78484;SDS011;67773;50.806;8.776;2023-05-07T07:31:26;17.33;;;11.37;;
78484;SDS011;67773;50.806;8.776;2023-05-07T07:33:52;19.70;;;11.55;;
78484;SDS011;67773;50.806;8.776;2023-05-07T07:36:18;19.48;;;11.98;;
78484;SDS011;67773;50.806;8.776;2023-05-07T07:38:45;18.55;;;12.15;;
78484;SDS011;67773;50.806;8.776;2023-05-07T07:41:10;20.13;;;12.27;;
78484;SDS011;67773;50.806;8.776;2023-05-07T07:43:35;22.80;;;13.63;;
78484;SDS011;67773;50.806;8.776;2023-05-07T07:46:01;21.67;;;13.17;;
78484;SDS011;67773;50.806;8.776;2023-05-07T07:48:26;16.40;;;10.90;;
78484;SDS011;67773;50.806;8.776;2023-05-07T07:50:51;21.27;;;12.85;;
78484;SDS011;67773;50.806;8.776;2023-05-07T07:53:17;16.53;;;10.70;;
78484;SDS011;67773;50.806;8.776;2023-05-07T07:55:43;16.67;;;11.13;;
78484;SDS011;67773;50.806;8.776;2023-05-07T07:58:09;17.15;;;12.18;;
78484;SDS011;67773;50.806;8.776;2023-05-07T08:00:34;16.73;;;11.23;;
78484;SDS011;67773;50.806;8.776;2023-05-07T08:02:59;19.77;;;12.10;;
78484;SDS011;67773;50.806;8.776;2023-05-07T08:05:28;17.92;;;12.18;;
78484;SDS011;67773;50.806;8.776;2023-05-07T08:07:54;16.20;;;10.75;;
78484;SDS011;67773;50.806;8.776;2023-05-07T08:10:19;19.00;;;11.70;;
78484;SDS011;67773;50.806;8.776;2023-05-07T08:12:50;15.93;;;10.60;;
78484;SDS011;67773;50.806;8.776;2023-05-07T08:15:16;15.57;;;10.63;;
78484;SDS011;67773;50.806;8.776;2023-05-07T08:17:42;17.98;;;11.30;;
78484;SDS011;67773;50.806;8.776;2023-05-07T08:20:08;18.20;;;11.20;;
78484;SDS011;67773;50.806;8.776;2023-05-07T08:22:37;20.58;;;13.32;;
78484;SDS011;67773;50.806;8.776;2023-05-07T08:25:03;18.92;;;11.55;;
78484;SDS011;67773;50.806;8.776;2023-05-07T08:27:28;17.67;;;11.63;;
78484;SDS011;67773;50.806;8.776;2023-05-07T08:29:54;18.85;;;12.30;;
78484;SDS011;67773;50.806;8.776;2023-05-07T08:32:20;16.23;;;11.38;;
78484;SDS011;67773;50.806;8.776;2023-05-07T08:34:46;18.42;;;11.13;;
78484;SDS011;67773;50.806;8.776;2023-05-07T08:37:12;15.68;;;11.00;;
78484;SDS011;67773;50.806;8.776;2023-05-07T08:39:38;15.13;;;10.48;;
78484;SDS011;67773;50.806;8.776;2023-05-07T08:42:04;15.03;;;11.37;;
78484;SDS011;67773;50.806;8.776;2023-05-07T08:44:34;17.40;;;11.20;;
78484;SDS011;67773;50.806;8.776;2023-05-07T08:47:00;15.23;;;10.20;;
78484;SDS011;67773;50.806;8.776;2023-05-07T08:49:27;14.93;;;10.52;;
78484;SDS011;67773;50.806;8.776;2023-05-07T08:51:53;13.85;;;9.75;;
78484;SDS011;67773;50.806;8.776;2023-05-07T08:54:21;13.65;;;9.32;;
78484;SDS011;67773;50.806;8.776;2023-05-07T08:56:46;14.20;;;10.32;;
78484;SDS011;67773;50.806;8.776;2023-05-07T08:59:12;13.63;;;10.00;;
78484;SDS011;67773;50.806;8.776;2023-05-07T09:01:38;13.00;;;9.10;;
78484;SDS011;67773;50.806;8.776;2023-05-07T09:04:04;14.05;;;8.95;;
78484;SDS011;67773;50.806;8.776;2023-05-07T09:06:30;12.95;;;9.45;;
78484;SDS011;67773;50.806;8.776;2023-05-07T09:08:56;11.90;;;9.32;;
78484;SDS011;67773;50.806;8.776;2023-05-07T09:11:23;13.57;;;8.82;;
78484;SDS011;67773;50.806;8.776;2023-05-07T09:13:56;15.43;;;9.77;;
78484;SDS011;67773;50.806;8.776;2023-05-07T09:16:23;13.32;;;9.25;;
78484;SDS011;67773;50.806;8.776;2023-05-07T09:18:52;14.43;;;9.95;;
78484;SDS011;67773;50.806;8.776;2023-05-07T09:21:19;12.60;;;8.90;;
78484;SDS011;67773;50.806;8.776;2023-05-07T09:23:47;13.70;;;9.05;;
78484;SDS011;67773;50.806;8.776;2023-05-07T09:26:17;13.40;;;8.63;;
78484;SDS011;67773;50.806;8.776;2023-05-07T09:28:43;11.70;;;8.10;;
78484;SDS011;67773;50.806;8.776;2023-05-07T09:31:09;11.90;;;8.65;;
78484;SDS011;67773;50.806;8.776;2023-05-07T09:33:36;11.40;;;8.65;;
78484;SDS011;67773;50.806;8.776;2023-05-07T09:36:03;13.88;;;8.50;;
78484;SDS011;67773;50.806;8.776;2023-05-07T09:38:32;11.82;;;8.45;;
78484;SDS011;67773;50.806;8.776;2023-05-07T09:41:05;10.77;;;8.40;;
78484;SDS011;67773;50.806;8.776;2023-05-07T09:43:33;13.95;;;8.85;;
78484;SDS011;67773;50.806;8.776;2023-05-07T09:46:02;13.73;;;9.07;;
78484;SDS011;67773;50.806;8.776;2023-05-07T09:48:29;11.85;;;8.20;;
78484;SDS011;67773;50.806;8.776;2023-05-07T09:50:55;11.80;;;8.43;;
78484;SDS011;67773;50.806;8.776;2023-05-07T09:53:23;11.30;;;8.10;;
78484;SDS011;67773;50.806;8.776;2023-05-07T09:55:50;17.85;;;11.38;;
78484;SDS011;67773;50.806;8.776;2023-05-07T09:58:17;12.23;;;8.70;;
78484;SDS011;67773;50.806;8.776;2023-05-07T10:00:43;10.82;;;7.82;;
78484;SDS011;67773;50.806;8.776;2023-05-07T10:03:10;11.90;;;9.02;;
78484;SDS011;67773;50.806;8.776;2023-05-07T10:05:37;9.88;;;7.97;;
78484;SDS011;67773;50.806;8.776;2023-05-07T10:08:03;14.10;;;8.77;;
78484;SDS011;67773;50.806;8.776;2023-05-07T10:10:30;17.23;;;11.75;;
78484;SDS011;67773;50.806;8.776;2023-05-07T10:12:57;11.40;;;7.95;;
78484;SDS011;67773;50.806;8.776;2023-05-07T10:15:23;11.80;;;8.35;;
78484;SDS011;67773;50.806;8.776;2023-05-07T10:17:50;12.40;;;6.82;;
78484;SDS011;67773;50.806;8.776;2023-05-07T10:20:18;11.13;;;8.02;;
78484;SDS011;67773;50.806;8.776;2023-05-07T10:22:44;11.48;;;7.60;;
78484;SDS011;67773;50.806;8.776;2023-05-07T10:25:21;11.35;;;8.02;;
78484;SDS011;67773;50.806;8.776;2023-05-07T10:27:50;8.90;;;6.60;;
78484;SDS011;67773;50.806;8.776;2023-05-07T10:30:26;10.75;;;7.45;;
78484;SDS011;67773;50.806;8.776;2023-05-07T10:33:03;11.85;;;8.40;;
78484;SDS011;67773;50.806;8.776;2023-05-07T10:35:36;10.43;;;7.05;;
78484;SDS011;67773;50.806;8.776;2023-05-07T10:38:04;11.05;;;7.55;;
78484;SDS011;67773;50.806;8.776;2023-05-07T10:40:32;8.25;;;6.45;;
78484;SDS011;67773;50.806;8.776;2023-05-07T10:42:59;9.40;;;6.72;;
78484;SDS011;67773;50.806;8.776;2023-05-07T10:45:27;8.77;;;7.22;;
78484;SDS011;67773;50.806;8.776;2023-05-07T10:48:06;9.40;;;7.03;;
78484;SDS011;67773;50.806;8.776;2023-05-07T10:50:39;9.35;;;7.75;;
78484;SDS011;67773;50.806;8.776;2023-05-07T10:55:48;7.80;;;6.97;;
78484;SDS011;67773;50.806;8.776;2023-05-07T11:00:48;8.77;;;7.07;;
78484;SDS011;67773;50.806;8.776;2023-05-07T11:03:14;8.88;;;7.20;;
78484;SDS011;67773;50.806;8.776;2023-05-07T11:05:40;9.70;;;8.10;;
78484;SDS011;67773;50.806;8.776;2023-05-07T11:08:06;9.10;;;6.90;;
78484;SDS011;67773;50.806;8.776;2023-05-07T11:10:51;9.23;;;6.97;;
78484;SDS011;67773;50.806;8.776;2023-05-07T11:13:17;7.15;;;5.88;;
78484;SDS011;67773;50.806;8.776;2023-05-07T11:15:49;7.45;;;6.40;;
78484;SDS011;67773;50.806;8.776;2023-05-07T11:18:16;9.18;;;6.63;;
78484;SDS011;67773;50.806;8.776;2023-05-07T11:20:55;8.02;;;6.53;;
78484;SDS011;67773;50.806;8.776;2023-05-07T11:26:00;8.52;;;7.50;;
78484;SDS011;67773;50.806;8.776;2023-05-07T11:28:28;8.32;;;7.13;;
78484;SDS011;67773;50.806;8.776;2023-05-07T11:30:54;9.60;;;6.20;;
78484;SDS011;67773;50.806;8.776;2023-05-07T11:33:21;8.20;;;6.68;;
78484;SDS011;67773;50.806;8.776;2023-05-07T11:35:47;8.60;;;6.57;;
78484;SDS011;67773;50.806;8.776;2023-05-07T11:38:13;8.77;;;6.82;;
78484;SDS011;67773;50.806;8.776;2023-05-07T11:40:48;8.73;;;6.30;;
78484;SDS011;67773;50.806;8.776;2023-05-07T11:43:17;9.23;;;6.45;;
78484;SDS011;67773;50.806;8.776;2023-05-07T11:45:44;8.30;;;6.00;;
78484;SDS011;67773;50.806;8.776;2023-05-07T11:48:11;8.02;;;6.20;;
78484;SDS011;67773;50.806;8.776;2023-05-07T11:50:49;7.57;;;5.72;;
78484;SDS011;67773;50.806;8.776;2023-05-07T11:53:40;12.00;;;7.15;;
78484;SDS011;67773;50.806;8.776;2023-05-07T11:56:10;6.53;;;5.80;;
78484;SDS011;67773;50.806;8.776;2023-05-07T11:58:38;7.68;;;5.40;;
78484;SDS011;67773;50.806;8.776;2023-05-07T12:01:06;8.70;;;6.63;;
78484;SDS011;67773;50.806;8.776;2023-05-07T12:03:33;8.85;;;5.75;;
78484;SDS011;67773;50.806;8.776;2023-05-07T12:05:59;7.45;;;5.95;;
78484;SDS011;67773;50.806;8.776;2023-05-07T12:08:25;7.40;;;5.70;;
78484;SDS011;67773;50.806;8.776;2023-05-07T12:10:50;6.65;;;5.25;;
78484;SDS011;67773;50.806;8.776;2023-05-07T12:13:16;6.72;;;5.80;;
78484;SDS011;67773;50.806;8.776;2023-05-07T12:15:43;7.70;;;6.03;;
78484;SDS011;67773;50.806;8.776;2023-05-07T12:18:08;7.57;;;5.50;;
78484;SDS011;67773;50.806;8.776;2023-05-07T12:20:35;6.82;;;6.13;;
78484;SDS011;67773;50.806;8.776;2023-05-07T12:23:01;6.88;;;5.93;;
78484;SDS011;67773;50.806;8.776;2023-05-07T12:25:30;6.32;;;5.25;;
78484;SDS011;67773;50.806;8.776;2023-05-07T12:27:56;7.43;;;6.20;;
78484;SDS011;67773;50.806;8.776;2023-05-07T12:30:23;6.82;;;5.60;;
78484;SDS011;67773;50.806;8.776;2023-05-07T12:32:52;5.97;;;4.60;;
78484;SDS011;67773;50.806;8.776;2023-05-07T12:35:25;6.30;;;4.65;;
78484;SDS011;67773;50.806;8.776;2023-05-07T12:37:58;6.15;;;4.95;;
78484;SDS011;67773;50.806;8.776;2023-05-07T12:40:34;5.03;;;4.38;;
78484;SDS011;67773;50.806;8.776;2023-05-07T12:43:14;6.32;;;5.40;;
78484;SDS011;67773;50.806;8.776;2023-05-07T12:45:41;5.70;;;4.68;;
78484;SDS011;67773;50.806;8.776;2023-05-07T12:48:09;4.82;;;4.28;;
78484;SDS011;67773;50.806;8.776;2023-05-07T12:50:35;6.13;;;4.72;;
78484;SDS011;67773;50.806;8.776;2023-05-07T12:53:00;6.47;;;5.00;;
78484;SDS011;67773;50.806;8.776;2023-05-07T12:55:31;5.97;;;4.63;;
78484;SDS011;67773;50.806;8.776;2023-05-07T12:58:00;5.25;;;4.75;;
78484;SDS011;67773;50.806;8.776;2023-05-07T13:00:33;6.00;;;5.40;;
78484;SDS011;67773;50.806;8.776;2023-05-07T13:03:02;4.97;;;4.47;;
78484;SDS011;67773;50.806;8.776;2023-05-07T13:05:27;5.68;;;3.92;;
78484;SDS011;67773;50.806;8.776;2023-05-07T13:07:53;4.60;;;4.20;;
78484;SDS011;67773;50.806;8.776;2023-05-07T13:10:19;5.20;;;4.40;;
78484;SDS011;67773;50.806;8.776;2023-05-07T13:12:45;6.00;;;3.85;;
78484;SDS011;67773;50.806;8.776;2023-05-07T13:15:10;5.13;;;3.92;;
78484;SDS011;67773;50.806;8.776;2023-05-07T13:17:35;4.97;;;3.63;;
78484;SDS011;67773;50.806;8.776;2023-05-07T13:20:01;5.40;;;4.10;;
78484;SDS011;67773;50.806;8.776;2023-05-07T13:22:27;3.85;;;3.45;;
78484;SDS011;67773;50.806;8.776;2023-05-07T13:24:52;4.67;;;3.90;;
78484;SDS011;67773;50.806;8.776;2023-05-07T13:27:18;4.30;;;3.63;;
78484;SDS011;67773;50.806;8.776;2023-05-07T13:29:44;4.40;;;4.00;;
78484;SDS011;67773;50.806;8.776;2023-05-07T13:32:09;4.03;;;3.55;;
78484;SDS011;67773;50.806;8.776;2023-05-07T13:34:35;4.63;;;3.75;;
78484;SDS011;67773;50.806;8.776;2023-05-07T13:37:01;3.88;;;3.50;;
78484;SDS011;67773;50.806;8.776;2023-05-07T13:39:27;4.22;;;3.50;;
78484;SDS011;67773;50.806;8.776;2023-05-07T13:41:54;5.28;;;4.13;;
78484;SDS011;67773;50.806;8.776;2023-05-07T13:44:19;5.80;;;3.83;;
78484;SDS011;67773;50.806;8.776;2023-05-07T13:46:45;4.63;;;3.92;;
78484;SDS011;67773;50.806;8.776;2023-05-07T13:49:11;4.88;;;4.32;;
78484;SDS011;67773;50.806;8.776;2023-05-07T13:51:37;5.13;;;4.00;;
78484;SDS011;67773;50.806;8.776;2023-05-07T13:54:02;4.50;;;3.92;;
78484;SDS011;67773;50.806;8.776;2023-05-07T13:56:29;4.57;;;4.18;;
78484;SDS011;67773;50.806;8.776;2023-05-07T13:58:57;4.32;;;3.85;;
78484;SDS011;67773;50.806;8.776;2023-05-07T14:01:23;4.28;;;3.85;;
78484;SDS011;67773;50.806;8.776;2023-05-07T14:03:48;4.45;;;3.85;;
78484;SDS011;67773;50.806;8.776;2023-05-07T14:06:14;4.38;;;3.70;;
78484;SDS011;67773;50.806;8.776;2023-05-07T14:08:39;4.38;;;3.97;;
78484;SDS011;67773;50.806;8.776;2023-05-07T14:11:04;4.97;;;3.97;;
78484;SDS011;67773;50.806;8.776;2023-05-07T14:13:30;5.50;;;3.83;;
78484;SDS011;67773;50.806;8.776;2023-05-07T14:15:56;4.22;;;3.72;;
78484;SDS011;67773;50.806;8.776;2023-05-07T14:18:22;4.25;;;3.85;;
78484;SDS011;67773;50.806;8.776;2023-05-07T14:20:47;4.38;;;3.03;;
78484;SDS011;67773;50.806;8.776;2023-05-07T14:23:14;4.82;;;4.00;;
78484;SDS011;67773;50.806;8.776;2023-05-07T14:25:40;5.20;;;3.70;;
78484;SDS011;67773;50.806;8.776;2023-05-07T14:28:06;4.63;;;3.58;;
78484;SDS011;67773;50.806;8.776;2023-05-07T14:30:31;3.88;;;3.50;;
78484;SDS011;67773;50.806;8.776;2023-05-07T14:32:56;5.88;;;4.00;;
78484;SDS011;67773;50.806;8.776;2023-05-07T14:35:22;4.83;;;3.93;;
78484;SDS011;67773;50.806;8.776;2023-05-07T14:37:49;5.03;;;3.80;;
78484;SDS011;67773;50.806;8.776;2023-05-07T14:40:15;3.83;;;3.42;;
78484;SDS011;67773;50.806;8.776;2023-05-07T14:42:40;4.18;;;3.78;;